LPPTLPPD

Guest
Details From LPPT - Lisboa
To LPPD - Ponta Delgada
Flight Number -
Tags Generated
Created
Modified
Stats Distance 783 nm / 1,450 km
Max Altitude 0 ft / 0 m
Waypoints 3
Social Downloads 22
Likes 0
Share VATSIM

Download

Looking for another format? Having issues loading an existing format? Contact us
Advertisement - Login to hide

Notes

Generated

Route

LPPT MGL LPPD

ID Type Via Altitude Latitude Longitude Leg Dist Tot Dist Heading (true) Name
O LPPT APT - 0 ft / 0 m 38.78624˚ -9.13721˚ - 0 nm - -
MGL NDB - 0 ft / 0 m 37.74139˚ -25.58389˚ 777 nm 777 nm 271° / 260° PONTA DELGADA NDB
O LPPD APT - 0 ft / 0 m 37.74624˚ -25.71090˚ 6 nm 783 nm 273° / 273° -

Altitude Profile

Advertisement - Login to hide

Weather


0- 5 10 15 20 25 30 35+ Temperature / ° C

Clouds and Precipitation
Forecast for 2017-12-13 18:00 UTC. Updated 2 hours ago

Ground ~20,000 ft ~40,000 ft Winds

LPPT

Details ICAO LPPT (LIS)
Name Lisboa
Region Portugal
Timezone Europe/Lisbon (UTC+0.0)
Stats Elevation 374 ft / 114 m (AMSL)
Location 38.778559° -9.135146°
Runways 2
Magnetic Variation 2.365° W

METAR

LPPT 131900Z 22007KT 6000 BKN006 BKN008 13/12 Q1028

Decode

TAF

TAF LPPT 131700Z 1318/1424 22008KT 9999 FEW010 BKN018 TEMPO 1318/1321 5000 DZ BR SCT005 BKN010 BECMG 1321/1324 VRB03KT 5000 BR SCT005 SCT010 PROB40 TEMPO 1400/1409 0800 DZ FG BKN001 BECMG 1409/1412 28008KT 9999 NSW SCT015 BKN025 PROB30 TEMPO 1409/1424 5000 -RA BR SCT006 BKN012

Decode

Departure Runways

ID Width Length Bearing (true) Bearing (mag) Surface Threshold Offset Overrun Length
03 148 ft / 45 m 12,518 ft / 3,815 m 22.70° 25.06° Asphalt 296 ft / 90 m 0 ft / 0 m
17 148 ft / 45 m 7,922 ft / 2,415 m 168.38° 170.74° Asphalt 0 ft / 0 m 0 ft / 0 m
21 148 ft / 45 m 12,518 ft / 3,815 m 202.72° 205.08° Asphalt 1,969 ft / 600 m 0 ft / 0 m
35 148 ft / 45 m 7,922 ft / 2,415 m 348.38° 350.74° Asphalt 492 ft / 150 m 0 ft / 0 m

LPPD

Details ICAO LPPD (PDL)
Name PONTA DELGADA
Region Portugal
Timezone Atlantic/Azores (UTC-1.0)
Stats Elevation 259 ft / 79 m (AMSL)
Location 37.742078° -25.697736°
Runways 1
Magnetic Variation 8.362° W

METAR

LPPD 131900Z 29005KT 240V310 9999 FEW008 BKN012 17/15 Q1033

Decode

TAF

TAF LPPD 131700Z 1318/1418 27008KT 9999 FEW006 SCT015 PROB40 TEMPO 1318/1418 5000 -RA BR FEW002 BKN005

Decode

Destination Runways

ID Width Length Bearing (true) Bearing (mag) Surface Threshold Offset Overrun Length
12 148 ft / 45 m 8,179 ft / 2,493 m 111.77° 120.13° Asphalt 0 ft / 0 m 375 ft / 114 m
30 148 ft / 45 m 8,179 ft / 2,493 m 291.79° 300.15° Asphalt 787 ft / 240 m 0 ft / 0 m

Approach Navaids

Runway Type Ident Frequency Range Bearing (true) Bearing (mag) Slope Elevation
30 Localiser NL 109.50 MHz 18 nm / 33 km 291.78° 300.14° - 259 ft / 79 m (AMSL)
30 Glidescope NL 109.50 MHz 10 nm / 19 km 291.78° 300.14° 3.00° 259 ft / 79 m (AMSL)
30 DME NL 109.50 MHz 18 nm / 33 km - - - 259 ft / 79 m (AMSL)

Popular Alternatives